KDVOKASN

Guest
Details From KDVO - Gnoss Fld
To KASN - Talladega Muni
Flight Number -
Tags Generated
Created
Modified
Stats Distance 1,787 nm / 3,309 km
Max Altitude 0 ft / 0 m
Waypoints 10
Social Downloads 0
Likes 0
Share VATSIM

Download

Looking for another format? Having issues loading an existing format? Contact us
Advertisement - Login to hide

Notes

Generated

Route

KDVO 21448 CUVSI 13633 JUNER ANEME CEDIK KATBE UTACE KASN

ID Type Via Altitude Latitude Longitude Leg Dist Tot Dist Heading (true) Name
O KDVO APT - 0 ft / 0 m 38.14746˚ -122.55912˚ - 0 nm - -
21448 FIX - 0 ft / 0 m 38.38489˚ -118.23046˚ 204 nm 204 nm 85° / 87° -
CUVSI FIX - 0 ft / 0 m 38.22956˚ -112.68108˚ 261 nm 466 nm 90° / 94° -
13633 FIX - 0 ft / 0 m 37.91283˚ -108.44278˚ 201 nm 667 nm 94° / 97° -
JUNER FIX - 0 ft / 0 m 37.36767˚ -103.72267˚ 226 nm 894 nm 97° / 100° -
ANEME FIX - 0 ft / 0 m 36.59269˚ -98.77303˚ 241 nm 1136 nm 100° / 103° -
CEDIK FIX - 0 ft / 0 m 35.85564˚ -95.00808˚ 187 nm 1323 nm 103° / 105° -
KATBE FIX - 0 ft / 0 m 34.77982˚ -90.37427˚ 236 nm 1560 nm 105° / 107° -
UTACE FIX - 0 ft / 0 m 33.61006˚ -86.22417˚ 217 nm 1777 nm 108° / 110° -
O KASN APT - 0 ft / 0 m 33.56320˚ -86.05656˚ 8 nm 1786 nm 109° / 109° -

Altitude Profile

Advertisement - Login to hide

Weather


0- 5 10 15 20 25 30 35+ Temperature / ° C

Clouds and Precipitation
Forecast for 2018-05-25 12:00 UTC. Updated 4 hours ago

Ground ~20,000 ft ~40,000 ft Winds

KDVO

Details ICAO KDVO
Name GNOSS FLD
Region United States
Timezone America/Los_Angeles (UTC-7.0)
Stats Elevation 2 ft / 1 m (AMSL)
Location 38.143602° -122.556123°
Runways 1
Magnetic Variation 13.562° E

METAR

KDVO 251455Z AUTO 20004KT 8SM FEW013 FEW019 12/12 A3006 RMK AO2

Decode

TAF

Not found

Departure Runways

ID Width Length Bearing (true) Bearing (mag) Surface Threshold Offset Overrun Length
13 75 ft / 23 m 3,304 ft / 1,007 m 148.57° 135.01° Asphalt 0 ft / 0 m 98 ft / 30 m
31 75 ft / 23 m 3,304 ft / 1,007 m 328.57° 315.01° Asphalt 0 ft / 0 m 125 ft / 38 m

KASN

Details ICAO KASN
Name Talladega Muni
Region United States
Timezone America/Chicago (UTC-5.0)
Stats Elevation 528 ft / 161 m (AMSL)
Location 33.569920° -86.050852°
Runways 1
Magnetic Variation 4.002° W

METAR

KASN 251455Z AUTO 07004KT 10SM SCT016 BKN022 27/22 A3006 RMK AO2 T02650223

Decode

TAF

TAF AMD KASN 251442Z 2515/2612 06005KT P6SM BKN015 FM251600 09005KT P6SM VCSH BKN040 FM251800 12005KT P6SM VCTS BKN045CB FM260100 VRB02KT P6SM BKN050

Decode

Destination Runways

ID Width Length Bearing (true) Bearing (mag) Surface Threshold Offset Overrun Length
03 98 ft / 30 m 6,009 ft / 1,831 m 35.26° 39.26° Asphalt 0 ft / 0 m 0 ft / 0 m
21 98 ft / 30 m 6,009 ft / 1,831 m 215.26° 219.26° Asphalt 0 ft / 0 m 174 ft / 53 m